Time;durP1;ratioP1;P1;durP2;ratioP2;P2;SDS_P1;SDS_P2;PMS_P1;PMS_P2;Temp;Humidity;BMP_temperature;BMP_pressure;BME280_temperature;BME280_humidity;BME280_pressure;Samples;Min_cycle;Max_cycle;Signal;HPM_P1;HPM_P2
2023/10/24 00:01:11;;;;;;;10.73;3.63;;;12.00;99.90;;;;;;4232058;27;20237;-80
2023/10/24 00:03:13;;;;;;;6.70;3.40;;;11.90;99.90;;;;;;4226645;27;20222;-80
2023/10/24 00:05:25;;;;;;;6.23;2.87;;;11.90;99.90;;;;;;4229461;27;20674;-80
2023/10/24 00:07:30;;;;;;;7.97;3.10;;;11.90;99.90;;;;;;4225486;28;20208;-81
2023/10/24 00:09:32;;;;;;;6.70;3.00;;;11.90;99.90;;;;;;4227804;27;20267;-80
2023/10/24 00:11:34;;;;;;;7.03;3.20;;;11.90;99.90;;;;;;4229695;27;20216;-80
2023/10/24 00:13:36;;;;;;;6.50;2.90;;;11.80;99.90;;;;;;4230008;28;20251;-80
2023/10/24 00:15:37;;;;;;;5.53;2.77;;;11.90;99.90;;;;;;4229745;28;20861;-81
2023/10/24 00:17:39;;;;;;;5.97;2.97;;;11.80;99.90;;;;;;4227504;28;20218;-80
2023/10/24 00:19:41;;;;;;;5.63;2.97;;;11.80;99.90;;;;;;4229137;28;20217;-80
2023/10/24 00:21:45;;;;;;;7.47;3.03;;;11.80;99.90;;;;;;4230687;27;20206;-80
2023/10/24 00:23:46;;;;;;;6.87;3.03;;;11.80;99.90;;;;;;4230096;28;20261;-81
2023/10/24 00:25:48;;;;;;;8.30;3.23;;;11.80;99.90;;;;;;4230776;27;20608;-80
2023/10/24 00:27:50;;;;;;;6.73;3.23;;;11.80;99.90;;;;;;4225219;28;20200;-81
2023/10/24 00:29:52;;;;;;;5.57;2.67;;;11.80;99.90;;;;;;4222338;28;20704;-80
2023/10/24 00:31:53;;;;;;;6.33;3.13;;;11.80;99.90;;;;;;4231014;27;20201;-81
2023/10/24 00:33:55;;;;;;;7.73;3.17;;;11.80;99.90;;;;;;4227762;28;20289;-81
2023/10/24 00:35:57;;;;;;;6.37;2.93;;;11.70;99.90;;;;;;4233099;27;20246;-80
2023/10/24 00:38:01;;;;;;;6.40;2.70;;;11.80;99.90;;;;;;4232405;27;20303;-80
2023/10/24 00:40:04;;;;;;;4.43;2.57;;;11.80;99.90;;;;;;4228487;28;20206;-80
2023/10/24 00:42:06;;;;;;;7.20;2.67;;;11.70;99.90;;;;;;4230816;27;20733;-81
2023/10/24 00:44:08;;;;;;;7.07;2.60;;;11.70;99.90;;;;;;4227970;28;20679;-80
2023/10/24 00:46:12;;;;;;;6.77;3.07;;;11.70;99.90;;;;;;4231005;28;20266;-80
2023/10/24 00:48:14;;;;;;;4.67;2.60;;;11.70;99.90;;;;;;4232857;27;20208;-80
2023/10/24 00:50:16;;;;;;;6.60;2.63;;;11.70;99.90;;;;;;4233425;27;20228;-80
2023/10/24 00:52:18;;;;;;;5.37;2.73;;;11.70;99.90;;;;;;4231098;27;20221;-81
2023/10/24 00:54:22;;;;;;;6.33;2.97;;;11.70;99.90;;;;;;4229819;27;20208;-81
2023/10/24 00:56:24;;;;;;;8.10;2.93;;;11.70;99.90;;;;;;4227200;28;20293;-81
2023/10/24 00:58:27;;;;;;;4.60;2.50;;;11.70;99.90;;;;;;4227754;27;20885;-81
2023/10/24 01:00:30;;;;;;;7.03;3.40;;;11.60;99.90;;;;;;4228153;28;20663;-80
2023/10/24 01:02:32;;;;;;;6.87;2.90;;;11.60;99.90;;;;;;4230002;28;20228;-80
2023/10/24 01:04:35;;;;;;;7.63;2.87;;;11.60;99.90;;;;;;4235284;28;20208;-81
2023/10/24 01:06:37;;;;;;;5.97;2.90;;;11.60;99.90;;;;;;4229154;28;20224;-81
2023/10/24 01:08:39;;;;;;;6.97;3.00;;;11.60;99.90;;;;;;4232535;27;20205;-81
2023/10/24 01:10:42;;;;;;;6.43;2.83;;;11.60;99.90;;;;;;4224386;28;20285;-81
2023/10/24 01:12:44;;;;;;;7.37;2.80;;;11.60;99.90;;;;;;4225822;27;21178;-80
2023/10/24 01:14:46;;;;;;;5.50;2.60;;;11.60;99.90;;;;;;4227277;27;20209;-81
2023/10/24 01:16:51;;;;;;;7.93;3.33;;;11.60;99.90;;;;;;4225673;27;20205;-80
2023/10/24 01:18:53;;;;;;;6.53;2.87;;;11.60;99.90;;;;;;4226022;28;20201;-81
2023/10/24 01:20:55;;;;;;;7.20;2.83;;;11.60;99.90;;;;;;4230764;27;20204;-80
2023/10/24 01:22:59;;;;;;;9.30;2.93;;;11.60;99.90;;;;;;4230700;27;20270;-81
2023/10/24 01:25:04;;;;;;;5.57;2.90;;;11.60;99.90;;;;;;4227680;28;20204;-81
2023/10/24 01:27:06;;;;;;;7.63;3.07;;;11.60;99.90;;;;;;4227546;28;20237;-81
2023/10/24 01:29:08;;;;;;;5.20;2.77;;;11.60;99.90;;;;;;4225091;28;20985;-80
2023/10/24 01:31:10;;;;;;;7.10;3.03;;;11.60;99.90;;;;;;4230772;27;20202;-80
2023/10/24 01:33:12;;;;;;;5.53;3.00;;;11.70;99.90;;;;;;4227613;28;20228;-80
2023/10/24 01:35:13;;;;;;;5.97;2.90;;;11.60;99.90;;;;;;4226598;28;20625;-81
2023/10/24 01:37:15;;;;;;;6.17;2.97;;;11.80;99.90;;;;;;4224672;28;20208;-81
2023/10/24 01:39:17;;;;;;;7.43;3.40;;;11.60;99.90;;;;;;4231355;28;20616;-81
2023/10/24 01:41:19;;;;;;;7.90;2.70;;;11.60;99.90;;;;;;4227203;28;20212;-81
2023/10/24 01:43:20;;;;;;;7.60;3.07;;;11.60;99.90;;;;;;4221983;28;20646;-81
2023/10/24 01:45:22;;;;;;;6.83;3.20;;;11.60;99.90;;;;;;4224870;28;20208;-81
2023/10/24 01:47:23;;;;;;;7.07;2.90;;;11.60;99.90;;;;;;4227848;28;20287;-81
2023/10/24 01:49:25;;;;;;;6.20;2.97;;;11.60;99.90;;;;;;4229299;27;20279;-81
2023/10/24 01:51:27;;;;;;;4.80;2.60;;;11.60;99.90;;;;;;4221216;28;20202;-81
2023/10/24 01:53:29;;;;;;;8.53;2.90;;;11.60;99.90;;;;;;4228541;28;20240;-81
2023/10/24 01:55:32;;;;;;;5.80;2.97;;;11.60;99.90;;;;;;4226616;27;20263;-81
2023/10/24 01:57:34;;;;;;;5.37;3.10;;;11.60;99.90;;;;;;4229417;28;20204;-81
2023/10/24 01:59:35;;;;;;;6.00;2.87;;;11.60;99.90;;;;;;4227086;28;20200;-80
2023/10/24 02:01:37;;;;;;;6.80;3.47;;;11.60;99.90;;;;;;4223285;27;20257;-81
2023/10/24 02:03:38;;;;;;;6.60;2.90;;;11.60;99.90;;;;;;4227865;28;20217;-81
2023/10/24 02:05:40;;;;;;;5.33;2.70;;;11.60;99.90;;;;;;4222764;28;20205;-80
2023/10/24 02:07:41;;;;;;;5.07;2.60;;;11.60;99.90;;;;;;4226955;27;20216;-81
2023/10/24 02:09:43;;;;;;;7.20;3.20;;;11.60;99.90;;;;;;4226045;28;20223;-80
2023/10/24 02:11:46;;;;;;;5.83;3.30;;;11.60;99.90;;;;;;4227592;28;20667;-80
2023/10/24 02:13:48;;;;;;;6.00;2.87;;;11.60;99.90;;;;;;4227015;28;20197;-80
2023/10/24 02:15:53;;;;;;;6.70;3.00;;;11.60;99.90;;;;;;4228271;28;20691;-80
2023/10/24 02:17:55;;;;;;;6.07;2.80;;;11.60;99.90;;;;;;4224863;28;20236;-81
2023/10/24 02:19:56;;;;;;;10.37;3.13;;;11.60;99.90;;;;;;4226388;28;20194;-81
2023/10/24 02:21:57;;;;;;;7.47;3.07;;;11.60;99.90;;;;;;4226613;28;20238;-81
2023/10/24 02:23:59;;;;;;;6.40;3.60;;;11.60;99.90;;;;;;4225689;28;20203;-80
2023/10/24 02:26:02;;;;;;;5.77;2.80;;;11.50;99.90;;;;;;4227443;28;20228;-81
2023/10/24 02:28:05;;;;;;;7.20;3.30;;;11.60;99.90;;;;;;4233874;28;20212;-81
2023/10/24 02:30:08;;;;;;;7.00;3.27;;;11.60;99.90;;;;;;4232449;28;20695;-81
2023/10/24 02:32:10;;;;;;;6.10;2.80;;;11.60;99.90;;;;;;4230838;28;20273;-81
2023/10/24 02:34:12;;;;;;;7.33;3.00;;;11.50;99.90;;;;;;4229446;28;20226;-81
2023/10/24 02:36:15;;;;;;;7.07;2.80;;;11.50;99.90;;;;;;4227880;28;20200;-81
2023/10/24 02:38:17;;;;;;;7.93;2.97;;;11.50;99.90;;;;;;4230410;28;20292;-81
2023/10/24 02:40:18;;;;;;;4.67;3.17;;;11.50;99.90;;;;;;4227625;28;20201;-81
2023/10/24 02:42:20;;;;;;;7.60;3.30;;;11.50;99.90;;;;;;4233062;27;20220;-81
2023/10/24 02:44:25;;;;;;;6.00;3.63;;;11.50;99.90;;;;;;4231086;28;20199;-81
2023/10/24 02:46:27;;;;;;;9.57;3.50;;;11.50;99.90;;;;;;4233304;27;20202;-81
2023/10/24 02:48:29;;;;;;;8.07;4.17;;;11.50;99.90;;;;;;4235437;27;20251;-81
2023/10/24 02:50:31;;;;;;;10.10;3.20;;;11.50;99.90;;;;;;4232014;28;20224;-81
2023/10/24 02:52:32;;;;;;;9.17;3.70;;;11.50;99.90;;;;;;4230541;28;20220;-81
2023/10/24 02:54:34;;;;;;;5.80;3.10;;;11.50;99.90;;;;;;4230771;28;20200;-81
2023/10/24 02:56:35;;;;;;;6.57;3.40;;;11.50;99.90;;;;;;4229085;28;20204;-81
2023/10/24 02:58:37;;;;;;;8.10;3.30;;;11.50;99.90;;;;;;4225908;28;20228;-81
2023/10/24 03:00:41;;;;;;;5.77;3.43;;;11.50;99.90;;;;;;4225111;28;20273;-81
2023/10/24 03:02:43;;;;;;;7.20;3.53;;;11.50;99.90;;;;;;4227907;28;20229;-81
2023/10/24 03:04:44;;;;;;;6.47;3.53;;;11.50;99.90;;;;;;4227322;28;20211;-81
2023/10/24 03:06:46;;;;;;;6.43;2.93;;;11.50;99.90;;;;;;4227636;27;20678;-81
2023/10/24 03:08:49;;;;;;;8.57;3.53;;;11.50;99.90;;;;;;4228104;27;20208;-81
2023/10/24 03:10:51;;;;;;;8.63;3.53;;;11.50;99.90;;;;;;4229461;27;20216;-80
2023/10/24 03:12:53;;;;;;;6.87;3.13;;;11.50;99.90;;;;;;4231233;27;20221;-81
2023/10/24 03:14:55;;;;;;;7.17;3.43;;;11.40;99.90;;;;;;4234504;27;20208;-81
2023/10/24 03:16:58;;;;;;;10.23;3.30;;;11.40;99.90;;;;;;4228532;27;20197;-80
2023/10/24 03:19:00;;;;;;;6.03;3.00;;;11.40;99.90;;;;;;4230401;28;20212;-81
2023/10/24 03:21:04;;;;;;;8.43;3.43;;;11.40;99.90;;;;;;4230508;27;20220;-80
2023/10/24 03:23:06;;;;;;;7.43;2.97;;;11.30;99.90;;;;;;4229538;27;20311;-80
2023/10/24 03:25:08;;;;;;;5.60;3.40;;;11.30;99.90;;;;;;4225708;27;20204;-81
2023/10/24 03:27:12;;;;;;;7.20;3.23;;;11.30;99.90;;;;;;4229358;27;20211;-80
2023/10/24 03:29:14;;;;;;;8.20;3.50;;;11.20;99.90;;;;;;4235916;27;20729;-80
2023/10/24 03:31:15;;;;;;;11.30;3.77;;;11.20;99.90;;;;;;4228786;27;20244;-80
2023/10/24 03:33:18;;;;;;;5.03;3.13;;;11.20;99.90;;;;;;4239768;27;20774;-80
2023/10/24 03:35:20;;;;;;;8.87;3.17;;;11.10;99.90;;;;;;4231699;28;20572;-80
2023/10/24 03:37:22;;;;;;;6.87;3.37;;;11.10;99.90;;;;;;4239740;27;20200;-81
2023/10/24 03:39:23;;;;;;;8.07;3.60;;;11.10;99.90;;;;;;4230390;28;20269;-80
2023/10/24 03:41:25;;;;;;;4.87;3.20;;;11.10;99.90;;;;;;4235240;27;20213;-80
2023/10/24 03:43:27;;;;;;;10.70;3.43;;;11.10;99.90;;;;;;4232478;27;20227;-80
2023/10/24 03:45:28;;;;;;;7.70;3.33;;;11.10;99.90;;;;;;4228772;27;20572;-81
2023/10/24 03:47:30;;;;;;;6.90;3.30;;;11.10;99.90;;;;;;4235152;27;20200;-80
2023/10/24 03:49:33;;;;;;;7.60;3.00;;;11.00;99.90;;;;;;4235455;27;20227;-80
2023/10/24 03:51:35;;;;;;;7.63;3.23;;;11.00;99.90;;;;;;4228996;27;20784;-80
2023/10/24 03:53:38;;;;;;;6.93;3.60;;;11.00;99.90;;;;;;4230539;28;20610;-81
2023/10/24 03:55:40;;;;;;;6.07;3.27;;;11.00;99.90;;;;;;4232247;27;20295;-80
2023/10/24 03:57:41;;;;;;;6.60;3.40;;;11.10;99.90;;;;;;4223798;28;20252;-81
2023/10/24 03:59:43;;;;;;;7.23;3.57;;;11.00;99.90;;;;;;4225412;27;20254;-80
2023/10/24 04:01:45;;;;;;;6.97;3.10;;;11.00;99.90;;;;;;4232691;27;20216;-81
2023/10/24 04:03:47;;;;;;;5.93;3.27;;;11.00;99.90;;;;;;4227571;27;20201;-81
2023/10/24 04:05:51;;;;;;;7.37;3.40;;;11.00;99.90;;;;;;4231572;28;20277;-80
2023/10/24 04:07:53;;;;;;;8.80;3.77;;;11.00;99.90;;;;;;4232222;27;20687;-81
2023/10/24 04:09:56;;;;;;;6.67;3.67;;;11.00;99.90;;;;;;4228759;27;20201;-80
2023/10/24 04:11:58;;;;;;;10.00;3.43;;;11.00;99.90;;;;;;4227429;27;20306;-81
2023/10/24 04:13:59;;;;;;;8.93;3.30;;;11.00;99.90;;;;;;4227721;28;20573;-81
2023/10/24 04:16:01;;;;;;;6.13;3.57;;;11.00;99.90;;;;;;4229390;27;20282;-80
2023/10/24 04:18:04;;;;;;;4.83;3.13;;;11.00;99.90;;;;;;4230314;27;20205;-81
2023/10/24 04:20:07;;;;;;;10.07;3.80;;;11.00;99.90;;;;;;4232273;27;20246;-81
2023/10/24 04:22:10;;;;;;;7.23;3.50;;;11.00;99.90;;;;;;4229109;27;20231;-81
2023/10/24 04:24:12;;;;;;;7.50;3.50;;;11.10;99.90;;;;;;4232617;27;20201;-81
2023/10/24 04:26:14;;;;;;;8.47;3.47;;;11.10;99.90;;;;;;4224721;28;20258;-81
2023/10/24 04:28:16;;;;;;;5.57;3.50;;;11.10;99.90;;;;;;4227359;27;20205;-81
2023/10/24 04:30:18;;;;;;;11.10;3.47;;;11.10;99.90;;;;;;4230310;27;20780;-81
2023/10/24 04:32:20;;;;;;;4.63;3.37;;;11.10;99.90;;;;;;4233082;27;20277;-81
2023/10/24 04:34:22;;;;;;;8.77;3.27;;;11.10;99.90;;;;;;4231579;27;20208;-81
2023/10/24 04:36:24;;;;;;;6.87;3.30;;;11.10;99.90;;;;;;4227071;28;20201;-81
2023/10/24 04:38:27;;;;;;;9.10;3.57;;;11.20;99.90;;;;;;4226115;27;20208;-81
2023/10/24 04:40:29;;;;;;;7.70;3.00;;;11.10;99.90;;;;;;4230592;27;20204;-81
2023/10/24 04:42:31;;;;;;;7.27;3.20;;;11.20;99.90;;;;;;4230833;27;20228;-81
2023/10/24 04:44:33;;;;;;;5.70;2.90;;;11.10;99.90;;;;;;4232887;28;20205;-81
2023/10/24 04:46:35;;;;;;;5.17;3.20;;;11.10;99.90;;;;;;4229602;27;20209;-81
2023/10/24 04:48:36;;;;;;;10.57;3.17;;;11.20;99.90;;;;;;4227006;28;20197;-80
2023/10/24 04:50:39;;;;;;;7.53;3.27;;;11.20;99.90;;;;;;4232862;27;20228;-81
2023/10/24 04:52:41;;;;;;;6.03;3.00;;;11.20;99.90;;;;;;4233876;27;20230;-81
2023/10/24 04:54:44;;;;;;;7.40;3.67;;;11.10;99.90;;;;;;4230858;28;20213;-81
2023/10/24 04:56:46;;;;;;;8.33;3.93;;;11.20;99.90;;;;;;4230228;27;20197;-81
2023/10/24 04:58:49;;;;;;;10.73;5.00;;;11.10;99.90;;;;;;4229759;27;20193;-81
2023/10/24 05:00:51;;;;;;;11.60;4.77;;;11.10;99.90;;;;;;4225747;27;20204;-81
2023/10/24 05:02:53;;;;;;;7.60;4.23;;;11.10;99.90;;;;;;4231240;27;20286;-81
2023/10/24 05:04:55;;;;;;;7.63;3.80;;;11.10;99.90;;;;;;4228679;27;20663;-81
2023/10/24 05:06:57;;;;;;;9.93;4.13;;;11.10;99.90;;;;;;4230834;28;20244;-81
2023/10/24 05:08:59;;;;;;;8.40;3.90;;;10.80;99.90;;;;;;4234670;27;20220;-81
2023/10/24 05:11:03;;;;;;;5.00;3.40;;;11.10;99.90;;;;;;4230099;28;20228;-81
2023/10/24 05:13:05;;;;;;;6.77;3.10;;;11.10;99.90;;;;;;4228215;28;20310;-81
2023/10/24 05:15:07;;;;;;;8.17;3.30;;;11.10;99.90;;;;;;4232853;27;20208;-81
2023/10/24 05:17:09;;;;;;;4.80;3.00;;;11.10;99.90;;;;;;4226588;27;20218;-80
2023/10/24 05:19:11;;;;;;;7.17;3.47;;;11.10;99.90;;;;;;4227782;27;20230;-81
2023/10/24 05:21:13;;;;;;;7.20;3.20;;;11.10;99.90;;;;;;4229994;27;20196;-80
2023/10/24 05:23:16;;;;;;;6.83;2.80;;;11.10;99.90;;;;;;4229460;28;20228;-80
2023/10/24 05:25:18;;;;;;;6.00;3.27;;;11.10;99.90;;;;;;4225964;27;20216;-81
2023/10/24 05:27:21;;;;;;;9.43;3.40;;;11.10;99.90;;;;;;4226032;28;20205;-81
2023/10/24 05:29:25;;;;;;;7.10;3.30;;;11.10;99.90;;;;;;4224020;28;20266;-80
2023/10/24 05:31:27;;;;;;;9.27;3.40;;;11.10;99.90;;;;;;4228374;28;20266;-81
2023/10/24 05:33:29;;;;;;;9.57;4.30;;;11.20;99.90;;;;;;4227130;28;20232;-81
2023/10/24 05:35:32;;;;;;;7.90;3.97;;;11.20;99.90;;;;;;4230527;27;20264;-80
2023/10/24 05:37:33;;;;;;;5.33;3.57;;;11.20;99.90;;;;;;4230519;27;20215;-81
2023/10/24 05:39:34;;;;;;;10.83;4.60;;;11.20;99.90;;;;;;4227928;27;20227;-80
2023/10/24 05:41:36;;;;;;;8.80;4.80;;;11.10;99.90;;;;;;4227090;28;20792;-80
2023/10/24 05:43:40;;;;;;;8.97;4.67;;;11.10;99.90;;;;;;4227319;27;20254;-80
2023/10/24 05:45:42;;;;;;;6.60;3.90;;;11.10;99.90;;;;;;4229161;28;20232;-80
2023/10/24 05:47:44;;;;;;;8.17;3.77;;;11.10;99.90;;;;;;4232004;27;20216;-81
2023/10/24 05:49:46;;;;;;;6.03;3.67;;;11.20;99.90;;;;;;4226719;27;20201;-80
2023/10/24 05:51:48;;;;;;;5.27;3.60;;;11.20;99.90;;;;;;4227265;27;20744;-81
2023/10/24 05:53:50;;;;;;;7.33;3.60;;;11.20;99.90;;;;;;4224963;28;20751;-81
2023/10/24 05:55:52;;;;;;;8.33;4.07;;;11.10;99.90;;;;;;4228546;27;20239;-81
2023/10/24 05:57:54;;;;;;;7.13;3.77;;;11.10;99.90;;;;;;4224991;27;20208;-80
2023/10/24 05:59:58;;;;;;;6.23;3.83;;;11.20;99.90;;;;;;4231308;27;20257;-80
2023/10/24 06:02:00;;;;;;;7.73;4.20;;;11.20;99.90;;;;;;4231229;27;20206;-80
2023/10/24 06:04:02;;;;;;;8.63;4.00;;;11.20;99.90;;;;;;4231199;27;20216;-80
2023/10/24 06:06:04;;;;;;;8.50;4.23;;;11.20;99.90;;;;;;4224563;27;20212;-80
2023/10/24 06:08:06;;;;;;;10.80;4.37;;;11.20;99.90;;;;;;4220902;28;20265;-80
2023/10/24 06:10:09;;;;;;;10.17;4.07;;;11.20;99.90;;;;;;4226060;28;20212;-80
2023/10/24 06:12:10;;;;;;;8.00;3.90;;;11.20;99.90;;;;;;4230714;28;20224;-81
2023/10/24 06:14:12;;;;;;;9.17;3.87;;;11.20;99.90;;;;;;4225557;28;20200;-80
2023/10/24 06:16:16;;;;;;;9.10;4.40;;;11.20;99.90;;;;;;4225721;27;20583;-81
2023/10/24 06:18:19;;;;;;;8.73;4.13;;;11.30;99.90;;;;;;4227858;27;20241;-80
2023/10/24 06:20:21;;;;;;;9.97;4.43;;;11.30;99.90;;;;;;4227176;28;20212;-80
2023/10/24 06:22:24;;;;;;;10.10;5.20;;;11.30;99.90;;;;;;4231328;28;20224;-80
2023/10/24 06:24:26;;;;;;;9.63;4.87;;;11.30;99.90;;;;;;4226912;27;20266;-80
2023/10/24 06:26:28;;;;;;;9.57;4.97;;;11.30;99.90;;;;;;4227980;28;20660;-80
2023/10/24 06:28:30;;;;;;;10.23;4.97;;;11.30;99.90;;;;;;4228433;28;20204;-80
2023/10/24 06:30:32;;;;;;;9.13;4.60;;;11.30;99.90;;;;;;4227026;28;20227;-80
2023/10/24 06:32:36;;;;;;;10.70;4.80;;;11.30;99.90;;;;;;4225084;28;20687;-81
2023/10/24 06:34:38;;;;;;;11.33;5.20;;;11.30;99.90;;;;;;4228294;28;20271;-80
2023/10/24 06:36:40;;;;;;;10.93;5.77;;;11.30;99.90;;;;;;4228626;28;20204;-81
2023/10/24 06:38:41;;;;;;;11.27;5.57;;;11.30;99.90;;;;;;4227057;28;20208;-80
2023/10/24 06:40:45;;;;;;;7.87;4.40;;;11.30;99.90;;;;;;4229058;28;20200;-79
2023/10/24 06:42:47;;;;;;;8.77;4.27;;;11.40;99.90;;;;;;4227159;28;20249;-79
2023/10/24 06:44:52;;;;;;;10.97;4.03;;;11.40;99.90;;;;;;4229532;28;20208;-79
2023/10/24 06:46:54;;;;;;;8.40;4.23;;;11.40;99.90;;;;;;4231175;28;20209;-79
2023/10/24 06:48:57;;;;;;;9.83;3.73;;;11.40;99.90;;;;;;4230597;28;20253;-78
2023/10/24 06:50:59;;;;;;;7.17;4.03;;;11.40;99.90;;;;;;4236044;28;20215;-79
2023/10/24 06:53:00;;;;;;;8.77;4.50;;;11.40;99.90;;;;;;4231221;28;20220;-79
2023/10/24 06:55:03;;;;;;;6.50;4.07;;;11.50;99.90;;;;;;4233866;28;20230;-78
2023/10/24 06:57:05;;;;;;;6.67;3.33;;;11.50;99.90;;;;;;4232787;28;20205;-78
2023/10/24 06:59:06;;;;;;;8.43;4.10;;;11.50;99.90;;;;;;4228856;28;21070;-79
2023/10/24 07:01:08;;;;;;;9.10;4.03;;;11.50;99.90;;;;;;4228825;28;20204;-79
2023/10/24 07:03:10;;;;;;;9.43;4.00;;;11.60;99.90;;;;;;4232140;28;20224;-80
2023/10/24 07:05:13;;;;;;;7.20;4.30;;;11.60;99.90;;;;;;4225876;28;20209;-80
2023/10/24 07:07:15;;;;;;;7.33;3.73;;;11.60;99.90;;;;;;4229832;28;20205;-80
2023/10/24 07:09:17;;;;;;;9.57;4.13;;;11.60;99.90;;;;;;4229639;28;20205;-80
2023/10/24 07:11:19;;;;;;;9.23;4.53;;;11.60;99.90;;;;;;4227288;28;20209;-79
2023/10/24 07:13:21;;;;;;;12.93;6.10;;;11.70;99.90;;;;;;4226954;28;20726;-79
2023/10/24 07:15:23;;;;;;;10.73;5.07;;;11.70;99.90;;;;;;4225709;27;20672;-80
2023/10/24 07:17:25;;;;;;;9.13;4.47;;;11.70;99.90;;;;;;4223087;28;20216;-81
2023/10/24 07:19:27;;;;;;;7.93;4.40;;;11.70;99.90;;;;;;4227760;28;20204;-79
2023/10/24 07:21:30;;;;;;;8.87;4.10;;;11.80;99.90;;;;;;4221555;28;20254;-77
2023/10/24 07:23:31;;;;;;;10.40;4.27;;;11.80;99.90;;;;;;4226214;28;20226;-79
2023/10/24 07:25:33;;;;;;;7.67;3.93;;;11.80;99.90;;;;;;4226883;28;20201;-78
2023/10/24 07:27:35;;;;;;;8.43;3.80;;;11.80;99.90;;;;;;4231175;28;20210;-79
2023/10/24 07:29:37;;;;;;;8.50;4.20;;;11.90;99.90;;;;;;4232895;27;20619;-79
2023/10/24 07:31:39;;;;;;;8.83;3.77;;;11.90;99.90;;;;;;4235393;27;20292;-78
2023/10/24 07:33:42;;;;;;;9.20;4.03;;;11.90;99.90;;;;;;4232310;27;20288;-78
2023/10/24 07:35:44;;;;;;;5.87;3.77;;;12.00;99.90;;;;;;4230694;27;20200;-79
2023/10/24 07:37:47;;;;;;;12.30;4.10;;;12.00;99.90;;;;;;4234644;27;20210;-79
2023/10/24 07:39:49;;;;;;;9.27;4.20;;;12.00;99.90;;;;;;4233924;28;20666;-79
2023/10/24 07:41:51;;;;;;;7.40;3.73;;;12.10;99.90;;;;;;4229666;27;20775;-78
2023/10/24 07:43:53;;;;;;;7.37;3.90;;;12.10;99.90;;;;;;4233979;27;20197;-79
2023/10/24 07:45:54;;;;;;;9.53;3.80;;;12.10;99.90;;;;;;4230466;27;20580;-78
2023/10/24 07:47:56;;;;;;;5.63;3.57;;;12.10;99.90;;;;;;4231668;27;20250;-79
2023/10/24 07:49:59;;;;;;;6.27;3.30;;;12.10;99.90;;;;;;4235906;28;20249;-79
2023/10/24 07:52:00;;;;;;;12.30;3.77;;;12.20;99.90;;;;;;4232078;27;20259;-79
2023/10/24 07:54:03;;;;;;;9.57;4.00;;;12.20;99.90;;;;;;4229407;27;20206;-79
2023/10/24 07:56:06;;;;;;;6.43;3.00;;;12.20;99.90;;;;;;4228081;28;20213;-79
2023/10/24 07:58:08;;;;;;;9.37;3.67;;;12.30;99.90;;;;;;4233282;27;20242;-79
2023/10/24 08:00:11;;;;;;;10.17;3.80;;;12.30;99.90;;;;;;4225512;27;20224;-78
2023/10/24 08:02:13;;;;;;;8.43;3.53;;;12.30;99.90;;;;;;4227913;28;20728;-79
2023/10/24 08:04:15;;;;;;;11.10;3.87;;;12.30;99.90;;;;;;4225042;27;20212;-79
2023/10/24 08:06:17;;;;;;;5.03;3.17;;;12.40;99.90;;;;;;4230109;27;20262;-79
2023/10/24 08:08:19;;;;;;;7.37;3.33;;;12.40;99.90;;;;;;4232812;27;20250;-79
2023/10/24 08:10:22;;;;;;;10.07;3.33;;;12.40;99.90;;;;;;4228782;27;20215;-79
2023/10/24 08:12:24;;;;;;;8.57;3.63;;;12.50;99.90;;;;;;4227002;27;20234;-79
2023/10/24 08:14:26;;;;;;;8.07;3.50;;;12.50;99.90;;;;;;4226007;27;20213;-80
2023/10/24 08:16:28;;;;;;;7.00;3.23;;;12.60;99.90;;;;;;4231596;27;20204;-80
2023/10/24 08:18:30;;;;;;;5.53;3.27;;;12.60;99.90;;;;;;4232491;27;20206;-80
2023/10/24 08:20:32;;;;;;;9.53;3.67;;;12.70;99.90;;;;;;4229885;27;20263;-80
2023/10/24 08:22:33;;;;;;;6.83;2.90;;;12.70;99.90;;;;;;4229653;27;20220;-81
2023/10/24 08:24:35;;;;;;;5.17;3.30;;;12.70;99.90;;;;;;4230405;27;20260;-80
2023/10/24 08:26:39;;;;;;;4.73;3.40;;;12.80;99.90;;;;;;4232362;27;20226;-81
2023/10/24 08:28:41;;;;;;;6.27;3.87;;;12.80;99.90;;;;;;4226076;28;20256;-81
2023/10/24 08:30:43;;;;;;;5.80;4.00;;;12.90;99.90;;;;;;4228308;27;20211;-80
2023/10/24 08:32:46;;;;;;;6.33;4.03;;;13.00;99.90;;;;;;4231371;27;20317;-81
2023/10/24 08:34:47;;;;;;;5.50;3.43;;;13.10;99.90;;;;;;4229259;27;20671;-81
2023/10/24 08:36:49;;;;;;;5.20;3.10;;;13.10;99.90;;;;;;4229758;28;20287;-81
2023/10/24 08:38:51;;;;;;;11.60;3.33;;;13.20;99.90;;;;;;4228660;28;20200;-81
2023/10/24 08:40:52;;;;;;;9.83;4.07;;;13.30;99.90;;;;;;4231403;27;20212;-81
2023/10/24 08:42:56;;;;;;;8.30;3.67;;;13.30;99.90;;;;;;4228967;28;20225;-81
2023/10/24 08:44:59;;;;;;;7.10;3.90;;;13.40;99.90;;;;;;4226168;27;20674;-80
2023/10/24 08:47:03;;;;;;;8.20;3.30;;;13.50;99.90;;;;;;4230266;27;20222;-81
2023/10/24 08:49:05;;;;;;;5.50;3.53;;;13.50;99.90;;;;;;4227255;28;20215;-81
2023/10/24 08:51:08;;;;;;;5.63;3.13;;;13.60;99.90;;;;;;4228334;28;20214;-81
2023/10/24 08:53:11;;;;;;;8.27;3.20;;;13.70;99.90;;;;;;4228239;27;20280;-81
2023/10/24 08:55:13;;;;;;;8.70;3.53;;;13.70;99.90;;;;;;4231263;27;20192;-81
2023/10/24 08:57:14;;;;;;;6.63;2.93;;;13.80;99.90;;;;;;4229568;27;20200;-81
2023/10/24 08:59:18;;;;;;;5.53;2.90;;;13.90;99.90;;;;;;4227943;27;20241;-81
2023/10/24 09:01:21;;;;;;;6.53;2.93;;;13.90;99.90;;;;;;4228525;27;20229;-81
2023/10/24 09:03:23;;;;;;;6.27;2.90;;;14.00;99.90;;;;;;4229445;27;20221;-81
2023/10/24 09:05:28;;;;;;;9.40;3.07;;;14.10;99.90;;;;;;4228287;27;21707;-81
2023/10/24 09:07:30;;;;;;;6.57;3.73;;;14.20;99.90;;;;;;4229567;28;20208;-81
2023/10/24 09:09:32;;;;;;;7.27;3.37;;;14.20;99.90;;;;;;4235239;27;20724;-81
2023/10/24 09:11:56;;;;;;;6.00;3.00;;;14.20;99.90;;;;;;4233960;27;20197;-81
2023/10/24 09:13:58;;;;;;;6.03;3.60;;;14.30;99.90;;;;;;4224291;28;20209;-81
2023/10/24 09:16:09;;;;;;;7.03;3.80;;;14.40;99.90;;;;;;4226773;27;20208;-81
2023/10/24 09:18:11;;;;;;;9.87;3.60;;;14.40;99.90;;;;;;4228081;28;20261;-82
2023/10/24 09:20:13;;;;;;;10.60;3.93;;;14.50;99.90;;;;;;4232682;27;20200;-81
2023/10/24 09:22:16;;;;;;;7.73;3.30;;;14.50;99.90;;;;;;4224689;28;20718;-81
2023/10/24 09:24:21;;;;;;;8.23;3.17;;;14.60;99.90;;;;;;4232536;27;20257;-81
2023/10/24 09:26:22;;;;;;;6.03;3.33;;;14.60;99.90;;;;;;4228076;27;20258;-81
2023/10/24 09:28:24;;;;;;;9.70;3.30;;;14.70;99.90;;;;;;4229108;28;20201;-81
2023/10/24 09:30:26;;;;;;;9.03;3.90;;;14.70;99.90;;;;;;4226229;28;20224;-82
2023/10/24 09:32:30;;;;;;;9.53;3.37;;;14.70;99.90;;;;;;4228757;27;20269;-80
2023/10/24 09:34:33;;;;;;;5.67;3.20;;;14.70;99.90;;;;;;4227998;27;20280;-80
2023/10/24 09:36:35;;;;;;;7.73;3.70;;;14.80;99.90;;;;;;4223720;28;20199;-80
2023/10/24 09:38:42;;;;;;;7.60;3.67;;;14.80;99.90;;;;;;4228935;27;20711;-82
2023/10/24 09:40:44;;;;;;;8.93;3.67;;;14.80;99.90;;;;;;4224517;28;20207;-81
2023/10/24 09:42:51;;;;;;;5.37;3.00;;;14.80;99.90;;;;;;4229266;27;20223;-82
2023/10/24 09:44:55;;;;;;;6.33;3.20;;;14.80;99.90;;;;;;4231008;27;20667;-81
2023/10/24 09:46:58;;;;;;;7.73;3.30;;;14.90;99.90;;;;;;4227605;27;20267;-81
2023/10/24 09:49:02;;;;;;;6.03;2.77;;;15.00;99.90;;;;;;4234519;27;20203;-82
2023/10/24 09:51:06;;;;;;;7.93;3.23;;;15.00;99.90;;;;;;4226352;28;20205;-81
2023/10/24 09:53:08;;;;;;;10.77;3.37;;;15.10;99.90;;;;;;4224820;27;20270;-81
2023/10/24 09:55:11;;;;;;;8.07;3.50;;;15.10;99.90;;;;;;4227082;27;20217;-82
2023/10/24 09:57:13;;;;;;;7.53;3.27;;;15.10;99.90;;;;;;4225573;28;20200;-82
2023/10/24 09:59:15;;;;;;;5.40;2.60;;;15.10;99.90;;;;;;4224821;28;20197;-81
2023/10/24 10:01:18;;;;;;;6.87;2.80;;;15.20;99.90;;;;;;4229300;28;20902;-82
2023/10/24 10:03:21;;;;;;;9.80;4.23;;;15.10;99.90;;;;;;4228597;28;20315;-81
2023/10/24 10:05:24;;;;;;;10.00;4.87;;;15.20;99.90;;;;;;4223893;28;20224;-82
2023/10/24 10:07:27;;;;;;;8.37;3.70;;;15.20;99.90;;;;;;4225386;28;20244;-81
2023/10/24 10:09:30;;;;;;;8.70;3.03;;;15.20;99.90;;;;;;4227980;28;20690;-82
2023/10/24 10:11:32;;;;;;;5.67;2.90;;;15.20;99.90;;;;;;4231606;27;20210;-81
2023/10/24 10:13:38;;;;;;;4.93;3.03;;;15.20;99.90;;;;;;4228911;28;20225;-81
2023/10/24 10:16:07;;;;;;;6.97;2.80;;;15.20;99.90;;;;;;4226920;28;20231;-80
2023/10/24 10:18:20;;;;;;;5.10;2.67;;;15.20;99.90;;;;;;4228133;27;20220;-81
2023/10/24 10:20:42;;;;;;;7.40;2.90;;;15.10;99.90;;;;;;4230930;28;20213;-81
2023/10/24 10:22:58;;;;;;;5.87;3.10;;;15.10;99.90;;;;;;4229474;28;20225;-82
2023/10/24 10:25:24;;;;;;;5.80;2.77;;;15.10;99.90;;;;;;4233241;28;20785;-76
2023/10/24 10:27:32;;;;;;;6.63;2.93;;;15.10;99.90;;;;;;4230572;28;20208;-78
2023/10/24 10:29:47;;;;;;;7.17;3.20;;;15.10;99.90;;;;;;4228922;28;20200;-78
2023/10/24 10:32:07;;;;;;;12.10;3.03;;;15.10;99.90;;;;;;4227545;28;20224;-77
2023/10/24 10:34:12;;;;;;;5.63;2.97;;;15.10;99.90;;;;;;4229497;28;20208;-77
2023/10/24 10:36:16;;;;;;;8.07;2.90;;;15.10;99.90;;;;;;4223279;28;20197;-77
2023/10/24 10:38:26;;;;;;;7.27;3.40;;;15.10;99.90;;;;;;4223543;28;20260;-78